Time;durP1;ratioP1;P1;durP2;ratioP2;P2;SDS_P1;SDS_P2;PMS_P1;PMS_P2;Temp;Humidity;BMP_temperature;BMP_pressure;BME280_temperature;BME280_humidity;BME280_pressure;Samples;Min_cycle;Max_cycle;Signal;HPM_P1;HPM_P2
2022/12/18 00:01:41;;;;;;;60.33;24.63;;;;;;;;;;5033211;28;20421;-78
2022/12/18 00:04:08;;;;;;;61.38;25.60;;;;;;;;;;5019280;28;20442;-79
2022/12/18 00:06:35;;;;;;;60.05;25.33;;;;;;;;;;5023787;28;20402;-79
2022/12/18 00:09:01;;;;;;;52.08;23.38;;;;;;;;;;5042278;28;20025;-78
2022/12/18 00:11:28;;;;;;;53.55;24.05;;;;;;;;;;5019510;28;20043;-79
2022/12/18 00:13:54;;;;;;;59.88;24.77;;;;;;;;;;5017716;28;20125;-80
2022/12/18 00:16:21;;;;;;;59.17;25.17;;;;;;;;;;5016619;28;20116;-79
2022/12/18 00:18:48;;;;;;;58.08;23.63;;;;;;;;;;5032386;28;20029;-80
2022/12/18 00:21:13;;;;;;;60.97;25.17;;;;;;;;;;5034196;28;20033;-79
2022/12/18 00:23:39;;;;;;;59.40;24.92;;;;;;;;;;5033515;28;20516;-79
2022/12/18 00:26:07;;;;;;;60.78;24.60;;;;;;;;;;5033915;28;20032;-80
2022/12/18 00:28:32;;;;;;;63.10;25.88;;;;;;;;;;5016466;28;20041;-79
2022/12/18 00:31:05;;;;;;;60.63;26.15;;;;;;;;;;5015749;28;20087;-79
2022/12/18 00:33:31;;;;;;;64.60;27.13;;;;;;;;;;5016193;28;20045;-79
2022/12/18 00:36:04;;;;;;;61.58;26.50;;;;;;;;;;5017068;28;20108;-79
2022/12/18 00:38:29;;;;;;;67.85;29.17;;;;;;;;;;5020220;28;20087;-77
2022/12/18 00:40:55;;;;;;;73.57;28.17;;;;;;;;;;5035987;28;20037;-79
2022/12/18 00:43:20;;;;;;;65.40;28.08;;;;;;;;;;5003255;28;20025;-80
2022/12/18 00:45:45;;;;;;;63.35;27.13;;;;;;;;;;5037079;28;20032;-79
2022/12/18 00:48:11;;;;;;;60.47;25.80;;;;;;;;;;5019453;28;20025;-77
2022/12/18 00:50:36;;;;;;;75.93;29.63;;;;;;;;;;5019158;28;20052;-79
2022/12/18 00:53:02;;;;;;;61.70;26.08;;;;;;;;;;5019155;28;20030;-79
2022/12/18 00:55:27;;;;;;;62.75;26.67;;;;;;;;;;5019191;28;20128;-79
2022/12/18 00:57:52;;;;;;;67.10;27.35;;;;;;;;;;5036979;28;20113;-79
2022/12/18 01:00:18;;;;;;;64.90;26.20;;;;;;;;;;5035484;28;20052;-79
2022/12/18 01:02:43;;;;;;;65.35;27.15;;;;;;;;;;5036650;28;20119;-79
2022/12/18 01:05:10;;;;;;;66.35;28.02;;;;;;;;;;5035704;28;20036;-79
2022/12/18 01:07:36;;;;;;;67.85;28.98;;;;;;;;;;5034968;28;20049;-79
2022/12/18 01:10:01;;;;;;;72.85;29.85;;;;;;;;;;5036513;28;20120;-78
2022/12/18 01:12:26;;;;;;;69.03;30.70;;;;;;;;;;5019057;28;20040;-78
2022/12/18 01:14:52;;;;;;;69.13;29.42;;;;;;;;;;5036393;28;20751;-79
2022/12/18 01:17:17;;;;;;;67.28;28.23;;;;;;;;;;5036595;28;20029;-78
2022/12/18 01:19:43;;;;;;;64.43;26.65;;;;;;;;;;5036301;28;20038;-79
2022/12/18 01:22:08;;;;;;;67.85;28.52;;;;;;;;;;5036354;28;20120;-80
2022/12/18 01:24:34;;;;;;;69.38;28.00;;;;;;;;;;5036616;28;20053;-79
2022/12/18 01:26:59;;;;;;;65.90;28.90;;;;;;;;;;5036483;28;20044;-78
2022/12/18 01:29:24;;;;;;;70.40;27.88;;;;;;;;;;5036132;28;20025;-79
2022/12/18 01:31:50;;;;;;;69.78;27.60;;;;;;;;;;5034889;28;20029;-79
2022/12/18 01:34:15;;;;;;;67.22;29.45;;;;;;;;;;5018643;28;20041;-79
2022/12/18 01:36:41;;;;;;;68.80;28.27;;;;;;;;;;5018413;28;20128;-79
2022/12/18 01:39:09;;;;;;;61.47;26.50;;;;;;;;;;5035862;28;20057;-78
2022/12/18 01:44:53;;;;;;;57.17;24.38;;;;;;;;;;5020836;28;20465;-77
2022/12/18 01:47:39;;;;;;;58.10;23.55;;;;;;;;;;5035389;28;20040;-77
2022/12/18 01:50:16;;;;;;;58.97;23.77;;;;;;;;;;5018159;28;20032;-78
2022/12/18 01:52:50;;;;;;;47.33;20.27;;;;;;;;;;5002906;28;20064;-77
2022/12/18 01:55:17;;;;;;;45.05;20.23;;;;;;;;;;5034753;28;20426;-77
2022/12/18 01:57:42;;;;;;;48.80;22.75;;;;;;;;;;5018123;28;20089;-78
2022/12/18 02:00:10;;;;;;;50.08;22.45;;;;;;;;;;5034529;28;20168;-78
2022/12/18 02:02:36;;;;;;;49.45;22.98;;;;;;;;;;5035807;28;20079;-78
2022/12/18 02:05:02;;;;;;;52.33;24.33;;;;;;;;;;5017890;28;20409;-78
2022/12/18 02:07:40;;;;;;;50.63;22.58;;;;;;;;;;5017918;28;20052;-77
2022/12/18 02:10:44;;;;;;;48.15;21.27;;;;;;;;;;5018734;28;20116;-78
2022/12/18 02:13:19;;;;;;;50.25;22.10;;;;;;;;;;5013740;28;20038;-78
2022/12/18 02:15:49;;;;;;;53.35;23.25;;;;;;;;;;5013738;28;20460;-78
2022/12/18 02:18:28;;;;;;;50.90;21.98;;;;;;;;;;5025639;28;20174;-78
2022/12/18 02:21:25;;;;;;;51.72;22.92;;;;;;;;;;5033731;28;20041;-77
2022/12/18 02:24:14;;;;;;;49.10;23.13;;;;;;;;;;5020581;28;20018;-78
2022/12/18 02:26:48;;;;;;;53.75;23.80;;;;;;;;;;5035291;28;20072;-78
2022/12/18 02:29:36;;;;;;;51.00;22.80;;;;;;;;;;5018237;28;20127;-78
2022/12/18 02:32:02;;;;;;;54.42;23.52;;;;;;;;;;5034061;28;20045;-78
2022/12/18 02:34:30;;;;;;;53.97;23.85;;;;;;;;;;5017381;28;20033;-80
2022/12/18 02:36:55;;;;;;;49.53;22.75;;;;;;;;;;5017937;28;20076;-77
2022/12/18 02:39:21;;;;;;;52.13;22.42;;;;;;;;;;5017505;28;20064;-76
2022/12/18 02:41:46;;;;;;;53.20;23.50;;;;;;;;;;5017121;28;20041;-80
2022/12/18 02:44:12;;;;;;;54.58;23.45;;;;;;;;;;5017141;28;20036;-77
2022/12/18 02:46:41;;;;;;;57.58;23.42;;;;;;;;;;5017297;28;20389;-78
2022/12/18 02:49:28;;;;;;;54.88;23.75;;;;;;;;;;5017280;28;20041;-77
2022/12/18 02:51:59;;;;;;;52.22;23.02;;;;;;;;;;5019630;28;20038;-78
2022/12/18 02:54:28;;;;;;;56.75;23.08;;;;;;;;;;5017738;28;20041;-78
2022/12/18 02:57:00;;;;;;;54.10;23.08;;;;;;;;;;5034530;28;20127;-78
2022/12/18 02:59:40;;;;;;;53.33;23.00;;;;;;;;;;5017262;28;20036;-77
2022/12/18 03:02:33;;;;;;;50.90;22.05;;;;;;;;;;5017042;28;20160;-78
2022/12/18 03:05:03;;;;;;;57.42;24.27;;;;;;;;;;5033343;28;20034;-78
2022/12/18 03:07:37;;;;;;;;;;;;;;;;;;5017797;28;20124;-78
2022/12/18 03:10:03;;;;;;;58.45;24.30;;;;;;;;;;5017405;28;19913;-77
2022/12/18 03:12:40;;;;;;;54.70;24.20;;;;;;;;;;5016929;28;20026;-77
2022/12/18 03:15:11;;;;;;;53.53;23.02;;;;;;;;;;5016926;28;20059;-77
2022/12/18 03:17:37;;;;;;;54.42;24.77;;;;;;;;;;5034240;28;20075;-77
2022/12/18 03:20:08;;;;;;;55.40;23.80;;;;;;;;;;5032897;28;20041;-77
2022/12/18 03:22:33;;;;;;;57.13;24.50;;;;;;;;;;5017042;28;20084;-79
2022/12/18 03:25:00;;;;;;;54.35;20.70;;;;;;;;;;5016635;28;20021;-78
2022/12/18 03:27:25;;;;;;;57.88;24.17;;;;;;;;;;5033014;28;20310;-79
2022/12/18 03:30:10;;;;;;;47.67;21.30;;;;;;;;;;5033161;28;20140;-79
2022/12/18 03:33:02;;;;;;;55.88;23.17;;;;;;;;;;5017671;28;20036;-78
2022/12/18 03:35:30;;;;;;;49.95;20.80;;;;;;;;;;5018600;28;20029;-78
2022/12/18 03:37:56;;;;;;;61.08;24.70;;;;;;;;;;5016771;28;20129;-78
2022/12/18 03:40:23;;;;;;;55.90;23.60;;;;;;;;;;5034180;28;20128;-78
2022/12/18 03:42:51;;;;;;;55.50;22.88;;;;;;;;;;5016621;28;20112;-78
2022/12/18 03:45:30;;;;;;;56.30;24.40;;;;;;;;;;5016730;28;20034;-78
2022/12/18 03:48:01;;;;;;;52.17;22.50;;;;;;;;;;5016823;28;20088;-78
2022/12/18 03:50:30;;;;;;;56.38;22.85;;;;;;;;;;5000161;28;20536;-78
2022/12/18 03:53:25;;;;;;;49.92;20.73;;;;;;;;;;5034090;28;20041;-78
2022/12/18 03:55:51;;;;;;;48.22;20.70;;;;;;;;;;5016080;28;20029;-77
2022/12/18 03:58:19;;;;;;;52.00;20.83;;;;;;;;;;5016131;28;20028;-78
2022/12/18 04:00:44;;;;;;;46.65;21.05;;;;;;;;;;5016239;28;20041;-77
2022/12/18 04:03:10;;;;;;;49.63;20.45;;;;;;;;;;5032679;28;20041;-78
2022/12/18 04:05:35;;;;;;;47.92;20.48;;;;;;;;;;5033496;28;20033;-77
2022/12/18 04:08:00;;;;;;;43.65;20.75;;;;;;;;;;5032737;28;20056;-78
2022/12/18 04:10:26;;;;;;;49.25;20.35;;;;;;;;;;5016497;28;20124;-78
2022/12/18 04:12:52;;;;;;;56.08;21.83;;;;;;;;;;5036716;28;20049;-77
2022/12/18 04:15:17;;;;;;;50.60;21.48;;;;;;;;;;5019768;28;20034;-77
2022/12/18 04:17:52;;;;;;;47.97;21.23;;;;;;;;;;5019486;28;20477;-77
2022/12/18 04:20:17;;;;;;;47.55;20.25;;;;;;;;;;5019704;28;20045;-77
2022/12/18 04:22:43;;;;;;;52.15;22.20;;;;;;;;;;5020031;28;20044;-78
2022/12/18 04:25:12;;;;;;;50.72;21.40;;;;;;;;;;5003560;28;20036;-79
2022/12/18 04:27:37;;;;;;;48.70;22.05;;;;;;;;;;5020014;28;20128;-78
2022/12/18 04:30:03;;;;;;;48.88;20.40;;;;;;;;;;5036974;28;20069;-79
2022/12/18 04:32:28;;;;;;;50.75;21.55;;;;;;;;;;5019813;28;20040;-79
2022/12/18 04:34:54;;;;;;;57.95;22.75;;;;;;;;;;5019743;28;20125;-78
2022/12/18 04:37:19;;;;;;;51.22;20.20;;;;;;;;;;5037365;28;20443;-79
2022/12/18 04:39:44;;;;;;;53.72;20.90;;;;;;;;;;5036970;28;20026;-79
2022/12/18 04:42:10;;;;;;;45.78;19.63;;;;;;;;;;5037399;28;20377;-78
2022/12/18 04:44:36;;;;;;;46.45;19.50;;;;;;;;;;5035798;28;20052;-78
2022/12/18 04:47:01;;;;;;;46.08;20.02;;;;;;;;;;5036011;28;20042;-77
2022/12/18 04:49:27;;;;;;;52.17;20.15;;;;;;;;;;5037099;28;20037;-77
2022/12/18 04:51:52;;;;;;;42.17;17.08;;;;;;;;;;5019268;28;20029;-77
2022/12/18 04:54:21;;;;;;;49.65;19.85;;;;;;;;;;5019122;28;20132;-78
2022/12/18 04:56:46;;;;;;;43.60;18.80;;;;;;;;;;5019418;28;20129;-78
2022/12/18 04:59:12;;;;;;;48.17;18.80;;;;;;;;;;5036901;28;20069;-78
2022/12/18 05:01:37;;;;;;;46.65;20.20;;;;;;;;;;5036859;28;20123;-78
2022/12/18 05:04:03;;;;;;;48.42;18.70;;;;;;;;;;5035581;28;20465;-78
2022/12/18 05:06:28;;;;;;;42.28;18.20;;;;;;;;;;5035418;28;20053;-78
2022/12/18 05:08:54;;;;;;;49.47;19.63;;;;;;;;;;5036850;28;20033;-78
2022/12/18 05:11:19;;;;;;;49.53;18.92;;;;;;;;;;5036951;28;20033;-78
2022/12/18 05:13:45;;;;;;;50.95;20.00;;;;;;;;;;5020111;28;20155;-78
2022/12/18 05:16:10;;;;;;;51.20;20.05;;;;;;;;;;5032049;28;20060;-79
2022/12/18 05:18:36;;;;;;;51.30;19.55;;;;;;;;;;5018233;28;20029;-78
2022/12/18 05:21:01;;;;;;;39.28;16.25;;;;;;;;;;5041254;28;20415;-79
2022/12/18 05:23:27;;;;;;;54.50;22.90;;;;;;;;;;5017986;28;20026;-79
2022/12/18 05:25:53;;;;;;;48.25;18.23;;;;;;;;;;5036642;28;20040;-79
2022/12/18 05:28:19;;;;;;;47.95;19.70;;;;;;;;;;5018562;28;20040;-78
2022/12/18 05:30:53;;;;;;;44.78;17.65;;;;;;;;;;5018851;28;20029;-79
2022/12/18 05:33:19;;;;;;;44.53;18.42;;;;;;;;;;5018542;28;20032;-79
2022/12/18 05:35:49;;;;;;;57.22;21.55;;;;;;;;;;5036346;28;20112;-78
2022/12/18 05:38:14;;;;;;;46.75;21.33;;;;;;;;;;5035202;28;20021;-77
2022/12/18 05:40:42;;;;;;;42.88;17.67;;;;;;;;;;5018111;28;20025;-78
2022/12/18 05:43:07;;;;;;;43.55;17.02;;;;;;;;;;5034808;28;20428;-77
2022/12/18 05:45:36;;;;;;;48.55;19.08;;;;;;;;;;5035877;28;20021;-78
2022/12/18 05:48:01;;;;;;;49.22;20.00;;;;;;;;;;5035199;28;20033;-78
2022/12/18 05:50:27;;;;;;;51.60;18.42;;;;;;;;;;5036089;28;20417;-78
2022/12/18 05:52:52;;;;;;;40.92;15.93;;;;;;;;;;5036295;28;20125;-79
2022/12/18 05:55:17;;;;;;;45.05;19.25;;;;;;;;;;5035988;28;20034;-79
2022/12/18 05:57:43;;;;;;;52.38;19.52;;;;;;;;;;5035757;28;20518;-79
2022/12/18 06:00:09;;;;;;;49.50;19.52;;;;;;;;;;5035777;28;20447;-78
2022/12/18 06:02:35;;;;;;;46.10;18.95;;;;;;;;;;5035742;28;20056;-80
2022/12/18 06:05:00;;;;;;;49.25;16.92;;;;;;;;;;5035729;28;20029;-76
2022/12/18 06:07:26;;;;;;;47.72;20.08;;;;;;;;;;5035631;28;20391;-78
2022/12/18 06:09:51;;;;;;;50.47;19.42;;;;;;;;;;5035564;28;20489;-77
2022/12/18 06:12:16;;;;;;;53.35;21.02;;;;;;;;;;5035359;28;20132;-78
2022/12/18 06:14:42;;;;;;;48.33;18.95;;;;;;;;;;5017579;28;20120;-80
2022/12/18 06:17:07;;;;;;;44.60;19.30;;;;;;;;;;5035556;28;20090;-78
2022/12/18 06:19:33;;;;;;;37.58;14.85;;;;;;;;;;5017456;28;20166;-79
2022/12/18 06:21:58;;;;;;;53.50;20.38;;;;;;;;;;5035365;28;20061;-79
2022/12/18 06:24:24;;;;;;;54.80;22.23;;;;;;;;;;5035330;28;20112;-79
2022/12/18 06:26:49;;;;;;;52.00;19.77;;;;;;;;;;5034930;28;20482;-79
2022/12/18 06:29:15;;;;;;;54.63;20.98;;;;;;;;;;5017296;28;20021;-80
2022/12/18 06:31:40;;;;;;;55.72;21.55;;;;;;;;;;5017458;28;20026;-79
2022/12/18 06:34:06;;;;;;;62.53;23.90;;;;;;;;;;5035024;28;20064;-78
2022/12/18 06:36:31;;;;;;;62.97;24.63;;;;;;;;;;5001130;28;20030;-79
2022/12/18 06:38:57;;;;;;;57.03;23.70;;;;;;;;;;5035183;28;20037;-79
2022/12/18 06:41:22;;;;;;;52.65;20.92;;;;;;;;;;5034639;28;20088;-81
2022/12/18 06:43:48;;;;;;;56.97;21.75;;;;;;;;;;5017226;28;20026;-79
2022/12/18 06:46:13;;;;;;;57.13;23.42;;;;;;;;;;5017138;28;20025;-77
2022/12/18 06:48:39;;;;;;;60.92;23.48;;;;;;;;;;5034683;28;20129;-78
2022/12/18 06:51:04;;;;;;;53.22;20.90;;;;;;;;;;5033710;28;20053;-78
2022/12/18 06:53:31;;;;;;;53.15;22.08;;;;;;;;;;5033636;28;20021;-78
2022/12/18 06:56:03;;;;;;;49.92;22.38;;;;;;;;;;5033128;28;20025;-79
2022/12/18 06:58:29;;;;;;;52.05;22.10;;;;;;;;;;5017101;28;20029;-77
2022/12/18 07:01:00;;;;;;;53.28;22.48;;;;;;;;;;5034712;28;20083;-79
2022/12/18 07:03:25;;;;;;;52.65;22.02;;;;;;;;;;5033837;28;20557;-79
2022/12/18 07:05:51;;;;;;;50.65;20.63;;;;;;;;;;5017113;28;20049;-78
2022/12/18 07:08:16;;;;;;;53.50;21.13;;;;;;;;;;5036481;28;20122;-79
2022/12/18 07:10:42;;;;;;;52.03;21.55;;;;;;;;;;5041183;28;20488;-79
2022/12/18 07:13:07;;;;;;;54.10;21.02;;;;;;;;;;5023832;28;20025;-79
2022/12/18 07:15:33;;;;;;;49.78;21.58;;;;;;;;;;5033306;28;20485;-78
2022/12/18 07:17:58;;;;;;;49.33;20.63;;;;;;;;;;5016794;28;20426;-78
2022/12/18 07:20:24;;;;;;;49.67;19.85;;;;;;;;;;5033276;28;20502;-77
2022/12/18 07:22:49;;;;;;;44.95;19.73;;;;;;;;;;5034635;28;20033;-78
2022/12/18 07:25:15;;;;;;;48.15;19.45;;;;;;;;;;5034214;28;20478;-79
2022/12/18 07:27:40;;;;;;;42.75;17.77;;;;;;;;;;5016637;28;20450;-78
2022/12/18 07:30:06;;;;;;;43.40;18.40;;;;;;;;;;5016492;28;20037;-78
2022/12/18 07:32:32;;;;;;;44.85;19.67;;;;;;;;;;5034217;28;20041;-78
2022/12/18 07:34:57;;;;;;;28.83;12.50;;;;;;;;;;5016697;28;20083;-79
2022/12/18 07:37:23;;;;;;;43.60;17.48;;;;;;;;;;5033432;28;20021;-79
2022/12/18 07:39:48;;;;;;;42.83;17.00;;;;;;;;;;5016457;28;20064;-78
2022/12/18 07:42:32;;;;;;;43.15;17.90;;;;;;;;;;5034139;28;20097;-79
2022/12/18 07:45:01;;;;;;;43.60;17.23;;;;;;;;;;5016223;28;20030;-77
2022/12/18 07:47:27;;;;;;;36.67;15.93;;;;;;;;;;5016822;28;20086;-78
2022/12/18 07:49:52;;;;;;;38.25;16.77;;;;;;;;;;5034699;28;20034;-78
2022/12/18 07:52:18;;;;;;;37.20;14.98;;;;;;;;;;5017151;28;20036;-79
2022/12/18 07:54:43;;;;;;;39.30;16.13;;;;;;;;;;5037588;28;20025;-79
2022/12/18 07:57:09;;;;;;;41.22;17.23;;;;;;;;;;5034032;28;20480;-80
2022/12/18 07:59:34;;;;;;;34.72;15.70;;;;;;;;;;5016556;28;20036;-79
2022/12/18 08:02:00;;;;;;;34.40;14.73;;;;;;;;;;5016936;28;20033;-77
2022/12/18 08:04:25;;;;;;;26.98;12.02;;;;;;;;;;5034532;28;20072;-78
2022/12/18 08:06:51;;;;;;;35.13;14.80;;;;;;;;;;5018946;28;20120;-78
2022/12/18 08:09:16;;;;;;;33.90;13.80;;;;;;;;;;5034657;28;20417;-79
2022/12/18 08:11:42;;;;;;;31.73;13.65;;;;;;;;;;5035795;28;20032;-79
2022/12/18 08:14:07;;;;;;;27.23;12.50;;;;;;;;;;5017464;28;20434;-78
2022/12/18 08:16:33;;;;;;;38.70;16.05;;;;;;;;;;5016267;28;20026;-79
2022/12/18 08:18:58;;;;;;;33.42;14.45;;;;;;;;;;5033610;28;20053;-77
2022/12/18 08:21:26;;;;;;;34.95;15.15;;;;;;;;;;5016565;28;20037;-78
2022/12/18 08:23:52;;;;;;;36.40;15.55;;;;;;;;;;5016000;28;20032;-76
2022/12/18 08:26:18;;;;;;;34.78;15.25;;;;;;;;;;5016476;28;20084;-78
2022/12/18 08:28:43;;;;;;;38.45;14.63;;;;;;;;;;5016560;28;20037;-79
2022/12/18 08:31:09;;;;;;;36.38;14.30;;;;;;;;;;5016487;28;20025;-77
2022/12/18 08:33:35;;;;;;;36.25;14.80;;;;;;;;;;5033700;28;20029;-79
2022/12/18 08:36:01;;;;;;;29.73;14.32;;;;;;;;;;5032483;28;20123;-78
2022/12/18 08:38:26;;;;;;;29.67;13.73;;;;;;;;;;5015908;28;20397;-78
2022/12/18 08:41:02;;;;;;;29.67;13.40;;;;;;;;;;5032189;28;20041;-78
2022/12/18 08:46:12;;;;;;;30.55;13.77;;;;;;;;;;5032394;28;20473;-79
2022/12/18 08:48:37;;;;;;;31.77;13.18;;;;;;;;;;5016025;28;20038;-78
2022/12/18 08:51:03;;;;;;;32.97;12.07;;;;;;;;;;5033416;28;20048;-78
2022/12/18 08:53:28;;;;;;;31.92;12.07;;;;;;;;;;5015565;28;20037;-79
2022/12/18 08:55:54;;;;;;;31.40;14.88;;;;;;;;;;5032182;28;20029;-78
2022/12/18 08:58:20;;;;;;;28.10;11.95;;;;;;;;;;5018818;28;20409;-79
2022/12/18 09:00:46;;;;;;;26.88;11.23;;;;;;;;;;5019005;28;20033;-79
2022/12/18 09:03:15;;;;;;;24.70;11.25;;;;;;;;;;5035908;28;20126;-78
2022/12/18 09:05:40;;;;;;;29.92;11.30;;;;;;;;;;5018884;28;20053;-79
2022/12/18 09:08:06;;;;;;;26.02;10.77;;;;;;;;;;5037117;28;20098;-79
2022/12/18 09:10:32;;;;;;;22.92;9.88;;;;;;;;;;5035659;28;20048;-80
2022/12/18 09:12:57;;;;;;;28.35;12.02;;;;;;;;;;5035515;28;20033;-79
2022/12/18 09:15:22;;;;;;;32.40;13.75;;;;;;;;;;5036793;28;20037;-77
2022/12/18 09:17:49;;;;;;;25.52;11.43;;;;;;;;;;5035633;28;20458;-79
2022/12/18 09:20:15;;;;;;;25.60;11.25;;;;;;;;;;5036240;28;20037;-78
2022/12/18 09:22:41;;;;;;;29.23;12.20;;;;;;;;;;5019117;28;20378;-80
2022/12/18 09:25:09;;;;;;;24.55;11.75;;;;;;;;;;5018679;28;20033;-78
2022/12/18 09:27:35;;;;;;;25.42;11.73;;;;;;;;;;5036790;28;20041;-78
2022/12/18 09:30:01;;;;;;;25.70;11.68;;;;;;;;;;5018779;28;20037;-79
2022/12/18 09:32:26;;;;;;;25.15;11.45;;;;;;;;;;5018716;28;20034;-79
2022/12/18 09:34:51;;;;;;;25.60;12.05;;;;;;;;;;5018289;28;20502;-79
2022/12/18 09:37:17;;;;;;;25.38;11.85;;;;;;;;;;5018469;28;20029;-79
2022/12/18 09:39:42;;;;;;;27.27;12.57;;;;;;;;;;5036373;28;20033;-76
2022/12/18 09:42:22;;;;;;;31.20;13.05;;;;;;;;;;5035121;28;20033;-78
2022/12/18 09:44:52;;;;;;;32.47;12.73;;;;;;;;;;5035037;28;20033;-78
2022/12/18 09:47:25;;;;;;;32.75;13.85;;;;;;;;;;5018451;28;20415;-77
2022/12/18 09:50:02;;;;;;;32.90;13.35;;;;;;;;;;5034863;28;20065;-79
2022/12/18 09:52:30;;;;;;;29.00;13.13;;;;;;;;;;5018477;28;20041;-79
2022/12/18 09:55:01;;;;;;;33.53;12.73;;;;;;;;;;5034822;28;20092;-79
2022/12/18 09:57:29;;;;;;;28.50;13.10;;;;;;;;;;5034842;28;20031;-78
2022/12/18 10:00:23;;;;;;;34.47;13.45;;;;;;;;;;5018177;28;20029;-79
2022/12/18 10:02:50;;;;;;;31.05;13.20;;;;;;;;;;5018607;28;20032;-78
2022/12/18 10:05:56;;;;;;;30.42;13.48;;;;;;;;;;5018143;28;20034;-78
2022/12/18 10:08:28;;;;;;;31.92;12.68;;;;;;;;;;5014809;28;20379;-77
2022/12/18 10:10:58;;;;;;;27.90;11.75;;;;;;;;;;5014781;28;20356;-78
2022/12/18 10:13:42;;;;;;;24.42;10.65;;;;;;;;;;4998399;28;20041;-75
2022/12/18 10:16:17;;;;;;;29.45;11.45;;;;;;;;;;5014513;28;20033;-80
2022/12/18 10:19:11;;;;;;;31.73;13.95;;;;;;;;;;4998318;28;20380;-79
2022/12/18 10:21:45;;;;;;;23.52;10.75;;;;;;;;;;4999741;28;20151;-78
2022/12/18 10:24:26;;;;;;;27.20;12.23;;;;;;;;;;5007347;28;20050;-79
2022/12/18 10:26:52;;;;;;;27.05;12.05;;;;;;;;;;5002166;28;20371;-79
2022/12/18 10:29:17;;;;;;;24.92;10.93;;;;;;;;;;4999246;28;20042;-79
2022/12/18 10:31:43;;;;;;;24.80;10.68;;;;;;;;;;4982324;28;20470;-78
2022/12/18 10:34:10;;;;;;;25.63;12.50;;;;;;;;;;5015823;28;20033;-77
2022/12/18 10:36:35;;;;;;;24.15;11.90;;;;;;;;;;4998441;28;20440;-78
2022/12/18 10:39:17;;;;;;;27.73;11.68;;;;;;;;;;5015274;28;20041;-78
2022/12/18 10:41:43;;;;;;;27.17;12.10;;;;;;;;;;5015566;28;20048;-79
2022/12/18 10:44:22;;;;;;;28.52;10.88;;;;;;;;;;4997800;28;20100;-80
2022/12/18 10:46:55;;;;;;;27.42;13.38;;;;;;;;;;5013913;28;20101;-79
2022/12/18 10:49:31;;;;;;;29.20;12.20;;;;;;;;;;4998393;28;20124;-80
2022/12/18 10:52:19;;;;;;;29.33;13.35;;;;;;;;;;4997897;28;20113;-78
2022/12/18 10:54:49;;;;;;;32.75;14.43;;;;;;;;;;5014029;28;20038;-77
2022/12/18 10:57:36;;;;;;;30.17;13.02;;;;;;;;;;4997929;28;20113;-78
2022/12/18 11:00:27;;;;;;;30.13;13.00;;;;;;;;;;5015114;28;20052;-78
2022/12/18 11:02:53;;;;;;;25.00;12.65;;;;;;;;;;4997290;28;20029;-79
2022/12/18 11:05:24;;;;;;;27.25;12.30;;;;;;;;;;5013568;28;20032;-80
2022/12/18 11:07:50;;;;;;;27.05;12.48;;;;;;;;;;5015046;28;20129;-79
2022/12/18 11:10:17;;;;;;;27.38;13.63;;;;;;;;;;4997314;28;20065;-77
2022/12/18 11:12:42;;;;;;;34.60;14.60;;;;;;;;;;5015008;28;20113;-77
2022/12/18 11:15:19;;;;;;;34.25;14.60;;;;;;;;;;4981046;28;20129;-79
2022/12/18 11:17:44;;;;;;;33.83;14.25;;;;;;;;;;4981425;28;20465;-79
2022/12/18 11:20:24;;;;;;;31.98;14.40;;;;;;;;;;4979931;28;20065;-78
2022/12/18 11:23:00;;;;;;;29.90;14.35;;;;;;;;;;5014734;28;20103;-78
2022/12/18 11:25:26;;;;;;;29.15;12.85;;;;;;;;;;4980961;28;20515;-79
2022/12/18 11:27:53;;;;;;;33.20;13.18;;;;;;;;;;5014620;28;20084;-78
2022/12/18 11:30:27;;;;;;;31.00;13.70;;;;;;;;;;4980677;28;20386;-78
2022/12/18 11:33:17;;;;;;;25.98;12.73;;;;;;;;;;4997493;28;20033;-78
2022/12/18 11:35:52;;;;;;;28.77;12.43;;;;;;;;;;4982981;28;20034;-79
2022/12/18 11:38:22;;;;;;;25.60;12.20;;;;;;;;;;4996652;28;20083;-78
2022/12/18 11:41:10;;;;;;;25.48;12.68;;;;;;;;;;5014408;28;20036;-80
2022/12/18 11:43:43;;;;;;;25.70;11.88;;;;;;;;;;4969989;28;20042;-78
2022/12/18 11:46:12;;;;;;;29.50;11.93;;;;;;;;;;4981177;28;20023;-78
2022/12/18 11:48:54;;;;;;;29.80;13.93;;;;;;;;;;4964504;28;20128;-76
2022/12/18 11:51:35;;;;;;;25.40;11.88;;;;;;;;;;4996839;28;20390;-78
2022/12/18 11:54:01;;;;;;;23.35;11.75;;;;;;;;;;4996793;28;20128;-78
2022/12/18 11:56:35;;;;;;;25.70;11.95;;;;;;;;;;4997035;28;20041;-79
2022/12/18 11:59:11;;;;;;;27.27;12.05;;;;;;;;;;4981055;28;20034;-78
2022/12/18 12:02:02;;;;;;;23.10;10.25;;;;;;;;;;4997300;28;20036;-77
2022/12/18 12:05:15;;;;;;;23.67;10.25;;;;;;;;;;4982057;28;20096;-77
2022/12/18 12:08:16;;;;;;;22.75;11.20;;;;;;;;;;4956138;28;20468;-80
2022/12/18 12:10:59;;;;;;;25.77;11.50;;;;;;;;;;4997461;28;20385;-79
2022/12/18 12:13:54;;;;;;;23.45;11.68;;;;;;;;;;5033963;28;20427;-79
2022/12/18 12:16:39;;;;;;;24.33;11.52;;;;;;;;;;5028571;28;20038;-78
2022/12/18 12:19:19;;;;;;;30.17;13.38;;;;;;;;;;5033937;28;20041;-78
2022/12/18 12:22:03;;;;;;;32.60;14.30;;;;;;;;;;5033767;28;20439;-80
2022/12/18 12:24:56;;;;;;;31.65;14.40;;;;;;;;;;5000403;28;20442;-79
2022/12/18 12:27:37;;;;;;;30.63;14.95;;;;;;;;;;5016247;28;20061;-80
2022/12/18 12:30:05;;;;;;;34.40;15.10;;;;;;;;;;5032389;28;20083;-80
2022/12/18 12:32:49;;;;;;;29.15;14.13;;;;;;;;;;5018304;28;20040;-79
2022/12/18 12:35:32;;;;;;;35.60;16.13;;;;;;;;;;5037581;28;20083;-78
2022/12/18 12:38:12;;;;;;;34.95;16.38;;;;;;;;;;5036065;28;20469;-80
2022/12/18 12:40:44;;;;;;;;;;;;;;;;;;5019850;28;20034;-78
2022/12/18 12:43:16;;;;;;;30.20;15.05;;;;;;;;;;5036903;28;19913;-78
2022/12/18 12:46:12;;;;;;;34.00;14.85;;;;;;;;;;5019656;28;20050;-79
2022/12/18 12:48:52;;;;;;;37.88;17.00;;;;;;;;;;5022084;28;20493;-78
2022/12/18 12:51:25;;;;;;;37.05;16.10;;;;;;;;;;5004030;28;20056;-78
2022/12/18 12:53:51;;;;;;;34.10;15.40;;;;;;;;;;5002955;28;20042;-79
2022/12/18 12:56:18;;;;;;;38.85;16.92;;;;;;;;;;5019953;28;20029;-80
2022/12/18 12:58:52;;;;;;;42.90;18.13;;;;;;;;;;5036774;28;20047;-79
2022/12/18 13:01:26;;;;;;;43.63;20.23;;;;;;;;;;5019354;28;20072;-78
2022/12/18 13:04:21;;;;;;;35.72;15.98;;;;;;;;;;5018986;28;20045;-78
2022/12/18 13:06:54;;;;;;;38.10;16.65;;;;;;;;;;5031855;28;20045;-77
2022/12/18 13:09:19;;;;;;;48.38;19.42;;;;;;;;;;5035477;28;20033;-78
2022/12/18 13:14:34;;;;;;;40.47;17.73;;;;;;;;;;5036610;28;20084;-80
2022/12/18 13:17:21;;;;;;;45.28;18.13;;;;;;;;;;5002655;28;20028;-79
2022/12/18 13:20:07;;;;;;;46.58;18.88;;;;;;;;;;5036630;28;20036;-78
2022/12/18 13:22:58;;;;;;;46.53;18.40;;;;;;;;;;5035321;28;20493;-79
2022/12/18 13:25:31;;;;;;;47.28;17.88;;;;;;;;;;5015161;28;20046;-78
2022/12/18 13:27:59;;;;;;;47.03;19.75;;;;;;;;;;5018286;28;20578;-77
2022/12/18 13:30:31;;;;;;;58.28;23.08;;;;;;;;;;5036495;28;20112;-80
2022/12/18 13:33:16;;;;;;;61.13;25.15;;;;;;;;;;5036162;28;20032;-80
2022/12/18 13:35:47;;;;;;;53.80;21.27;;;;;;;;;;5036609;28;20037;-79
2022/12/18 13:38:31;;;;;;;51.20;20.70;;;;;;;;;;5036448;28;20061;-78
2022/12/18 13:41:22;;;;;;;53.60;19.83;;;;;;;;;;5035963;28;20041;-80
2022/12/18 13:43:52;;;;;;;48.95;17.58;;;;;;;;;;5026280;28;20296;-78
2022/12/18 13:46:20;;;;;;;56.25;22.73;;;;;;;;;;5018519;28;20033;-78
2022/12/18 13:49:02;;;;;;;45.72;18.88;;;;;;;;;;5035781;28;20037;-78
2022/12/18 13:51:28;;;;;;;52.20;19.45;;;;;;;;;;5018225;28;20103;-78
2022/12/18 13:53:58;;;;;;;53.40;20.42;;;;;;;;;;5018266;28;20028;-78
2022/12/18 13:56:26;;;;;;;56.80;21.45;;;;;;;;;;5018043;28;20037;-79
2022/12/18 13:59:18;;;;;;;54.22;22.27;;;;;;;;;;5035853;28;20052;-79
2022/12/18 14:01:45;;;;;;;53.05;20.80;;;;;;;;;;5035860;28;20033;-79
2022/12/18 14:04:12;;;;;;;52.28;20.60;;;;;;;;;;5036143;28;20033;-78
2022/12/18 14:06:38;;;;;;;81.47;34.50;;;;;;;;;;5001263;28;20076;-79
2022/12/18 14:09:03;;;;;;;122.45;49.58;;;;;;;;;;5018115;28;20481;-79
2022/12/18 14:11:29;;;;;;;65.55;24.02;;;;;;;;;;5035386;28;20461;-80
2022/12/18 14:13:54;;;;;;;58.08;23.10;;;;;;;;;;5034184;28;20037;-79
2022/12/18 14:16:20;;;;;;;62.22;26.08;;;;;;;;;;5034484;28;20030;-79
2022/12/18 14:18:56;;;;;;;121.20;57.75;;;;;;;;;;5017943;28;20029;-79
2022/12/18 14:21:23;;;;;;;73.20;32.00;;;;;;;;;;5017441;28;20067;-78
2022/12/18 14:23:49;;;;;;;91.75;36.25;;;;;;;;;;5035437;28;20038;-78
2022/12/18 14:26:28;;;;;;;190.02;83.50;;;;;;;;;;5034904;28;20113;-77
2022/12/18 14:28:58;;;;;;;95.95;40.67;;;;;;;;;;5034232;28;20036;-79
2022/12/18 14:31:27;;;;;;;78.15;29.00;;;;;;;;;;5017388;28;20390;-79
2022/12/18 14:33:53;;;;;;;95.18;35.05;;;;;;;;;;5017713;28;20026;-78
2022/12/18 14:36:20;;;;;;;63.97;26.17;;;;;;;;;;5034040;28;20041;-80
2022/12/18 14:38:56;;;;;;;82.35;31.65;;;;;;;;;;5017349;28;20457;-80
2022/12/18 14:41:22;;;;;;;61.28;23.95;;;;;;;;;;5017601;28;20040;-79
2022/12/18 14:43:48;;;;;;;58.30;24.13;;;;;;;;;;5035154;28;20022;-78
2022/12/18 14:46:32;;;;;;;62.17;24.25;;;;;;;;;;5017567;28;20052;-78